Pagrindinis puslapis
METAR-TAF:

METAR-TAF

Oro uostai :

Reid-Hillview Airport of Santa Clara County

San Chosė, Kalifornija, Jungtinės Amerikos Valstijos

platuma: 37-20N, ilguma: 121-49W, Aukštis: 41 m

Dabartinis oras

Ataskaita buvo paskelbta 58 minutes, ne 22:47 UTC
Ramus vėjas
Temperatūra 16°C
Drėgmė 51%
Slėgis 1016 hPa
Matomumas: 14.5 km
Giedras dangus

METAR: KRHV 252247Z 00000KT 9SM SKC 16/06 A3000

Laikas: 15:45 (23:45 UTC)


TAF: trūkstamas

Orai ataskaitas ir orų prognozės (METAR, TAF).

turimą stotys yra geltonos ir raudonos taškus žemėlapyje.

Perkelti pele per norėdami pamatyti stoties vardą.

Tada spustelėkite, norėdami matyti oro stebėjimo ir prognozės.

Norėdami pakeisti žemėlapį: spustelėkite ant žalios mygtukų su juodo kryžiaus žemyn,; žalią mygtuką su brūkšneliu, jei norite nutolinti; arba žalių rodyklių gretimoms žemėlapius.


METAR-TAF: